AirNav   Everest Fuels
 
 984 users online  

8S3 Santiam Junction State Airport
Santiam Junction, Oregon, USA

GOING TO SANTIAM JUNCTION?


FAA INFORMATION EFFECTIVE 03 JANUARY 2019

Location

FAA Identifier: 8S3
Lat/Long: 44-26-04.4000N / 121-56-32.2000W
44-26.073333N / 121-56.536667W
44.4345556 / -121.9422778
(estimated)
Elevation: 3780 ft. / 1152 m (estimated)
Variation: 19E (1985)
Time zone: UTC -8 (UTC -7 during Daylight Saving Time)
Zip code: 97730

Airport Operations

Airport use: Open to the public
Activation date: 09/1945
Control tower: no
ARTCC: SEATTLE CENTER
FSS: MC MINNVILLE FLIGHT SERVICE STATION
NOTAMs facility: MMV (NOTAM-D service available)
Attendance: UNATNDD
STATE HIGHWAY MAINTENANCE STATION NEARBY.
Wind indicator: yes
Segmented circle: yes

Airport Communications

CTAF: 122.9

Nearby radio navigation aids

VOR radial/distance  VOR name  Freq  Var
DSDr274/29.5DESCHUTES VORTAC117.6018E

Airport Services

Airframe service: NONE
Powerplant service: NONE
Bottled oxygen: NONE
Bulk oxygen: NONE

Runway Information

Runway 6/24

Dimensions: 2800 x 150 ft. / 853 x 46 m
Surface: gravel, in good condition
VOLCANIC CINDERS.
Runway edge markings: 06/24 MKD WITH WHITE TIRES AT CORNERS.
Operational restrictions: LAND TO EAST TKOF TO WEST.
RUNWAY 6  RUNWAY 24
Gradient: 1.5%1.5%
Traffic pattern: leftleft
Obstructions: 27 ft. trees, 165 ft. from runway, 100 ft. right of centerline, 6:1 slope to clear200 ft. trees, 450 ft. from runway, 2:1 slope to clear

Airport Ownership and Management from official FAA records

Ownership: Publicly-owned
Owner: OREGON DEPT OF AVIATION
3040 25TH ST SE
SALEM, OR 97302
Phone 503-378-4880
Manager: STATE AIRPORTS MGR
3040 25TH ST SE
SALEM, OR 97302
Phone (503) 378-2523

Airport Operational Statistics

Aircraft operations: 106/year *
94% transient general aviation
6% military
* for 12-month period ending 25 August 2016

Additional Remarks

ARPT SURROUNDED BY TREES AND HIGH TERRAIN.
OWNER ADVISES CONTACT WITH DEPT OF AVIATION (503-378-4880) PRIOR TO USE.
ARPT CLSD NOV 1- MAY 1 OR WHEN COVERED BY SNOW.
RY THLDS MARKED WITH WHITE TIRES AT CORNERS.

Instrument Procedures

There are no published instrument procedures at 8S3.

Some nearby airports with instrument procedures:

KRDM - Roberts Field Airport (36 nm E)
S33 - Madras Municipal Airport (37 nm NE)
KBDN - Bend Municipal Airport (38 nm SE)
S21 - Sunriver Airport (40 nm SE)
S39 - Prineville Airport (45 nm E)
 
Loc | Ops | Rwys | IFR | FBO | Links
Com | Nav | Svcs | Stats | Notes
Area around 8S3 (Santiam Junction State Airport)
 
Road maps at: MapQuest Bing Google
 
Aerial photo
WARNING: Photo may not be current or correct
Aerial photo of 8S3 (Santiam Junction State Airport)
Photo taken 22-Jun-2014
looking northeast.

Do you have a better or more recent aerial photo of Santiam Junction State Airport that you would like to share? If so, please send us your photo.

 
Sectional chart

 
Airport distance calculator
Flying to Santiam Junction State Airport? Find the distance to fly.

From to 8S3

Sunrise and sunset
Times for 17-Jan-2019
 Local
(UTC-8)
 Zulu
(UTC)
Morning civil twilight07:0815:08
Sunrise07:4115:41
Sunset16:5500:55
Evening civil twilight17:2801:28

Current date and time
Zulu (UTC)  18-Jan-2019 00:33:27
Local (UTC-8)  17-Jan-2019 16:33:27
 
METAR
6K5 
19nm SE 
SuperAWOS
172355Z AUTO 00000KT 04/02 A2970
KRDM 
36nm E 
172356Z 20015G22KT 10SM OVC075 06/00 A2971 RMK AO2 SLP073 T00610000 10089 20017 53030
KS33 
37nm NE 
180015Z AUTO 20003KT 5SM BR SCT065 OVC085 01/00 A2975 RMK AO2
KBDN 
38nm SE 
180015Z AUTO 20011KT 10SM CLR 05/01 A2974 RMK AO2
TAF
KRDM 
36nm E 
172210Z 1722/1818 21012G20KT P6SM BKN050 FM180600 19008KT P6SM BKN100
KBDN 
38nm SE 
172040Z 1721/1818 23012KT P6SM VCSH BKN040 FM180600 20008KT P6SM SCT040 BKN080
NOTAMs
Click for the latest NOTAMs
NOTAMs are issued by the DoD/FAA and will open in a separate window not controlled by AirNav.

 

 
 

Would you like to see your business listed on this page?

 If your business provides an interesting product or service to pilots, flight crews, aircraft, or users of the Santiam Junction State Airport, you should consider listing it here.  To start the listing process, click on the button below
 
Add a business
 

Other Pages about Santiam Junction State Airport

www.oregon.gov/...
 
Update a link
 
Copyright © AirNav, LLC. All rights reserved. Privacy Policy  Contact